Kooskia, Idaho
Current Conditions -  °F | °C
As of 2:55 PM on Tuesday 21 Oct 2014 (Local Time) from KGIC Reporting Station
Clear Clear  
Wind Chill: 54°   Ceiling: Unl
Heat Index: 54°   Visibility: 10mi
Dew Point: 38°   Wind: 13mph
Humidity: 54%   Direction: 240°WSW
Pressure: 30.03"   Gusts: 17mph
Location:  46.14°N, 115.98°W
Report Text: KGIC 212155Z AUTO 24011G15KT 10SM CLR 12/03 A3003 RMK AO1 T01230031
Loading
Personal Weather Stations






























Interactive Weather Map
Tropical Storm Tracking
New forecast layout! Learn more

10-Day Weather Forecast

Advertisements
Track Severe Weather on mobile